Time;durP1;ratioP1;P1;durP2;ratioP2;P2;SDS_P1;SDS_P2;PMS_P1;PMS_P2;Temp;Humidity;BMP_temperature;BMP_pressure;BME280_temperature;BME280_humidity;BME280_pressure;Samples;Min_cycle;Max_cycle;Signal;HPM_P1;HPM_P2
2023/03/17 00:01:11;;;;;;;7.05;4.55;;;8.40;99.90;;;;;;5055486;28;20396;-73
2023/03/17 00:03:39;;;;;;;6.60;4.28;;;8.50;99.90;;;;;;5087490;28;20048;-73
2023/03/17 00:06:13;;;;;;;8.98;4.60;;;8.50;99.90;;;;;;5088703;28;20044;-73
2023/03/17 00:08:40;;;;;;;7.95;4.85;;;;;;;;;;5088984;28;20094;-73
2023/03/17 00:11:11;;;;;;;7.45;4.63;;;;;;;;;;5071749;28;20093;-73
2023/03/17 00:13:37;;;;;;;8.35;4.32;;;8.30;99.90;;;;;;5071416;28;20056;-73
2023/03/17 00:16:06;;;;;;;6.68;5.00;;;8.60;99.90;;;;;;5055015;28;20029;-73
2023/03/17 00:18:34;;;;;;;8.25;4.53;;;8.30;99.90;;;;;;5088286;28;20040;-72
2023/03/17 00:21:00;;;;;;;11.65;4.70;;;;;;;;;;5088400;28;20048;-73
2023/03/17 00:23:26;;;;;;;7.18;4.25;;;;;;;;;;5071288;28;20094;-73
2023/03/17 00:25:53;;;;;;;6.65;4.00;;;;;;;;;;5071419;28;20051;-73
2023/03/17 00:28:19;;;;;;;5.88;4.45;;;8.40;99.90;;;;;;5071315;28;20048;-72
2023/03/17 00:30:46;;;;;;;5.53;4.13;;;;;;;;;;5088152;28;20126;-73
2023/03/17 00:33:14;;;;;;;6.28;4.22;;;8.50;99.90;;;;;;5070946;28;20044;-73
2023/03/17 00:35:41;;;;;;;6.40;4.38;;;;;;;;;;5087997;28;20499;-73
2023/03/17 00:38:10;;;;;;;6.53;4.03;;;;;;;;;;5054686;28;20040;-73
2023/03/17 00:40:36;;;;;;;7.15;4.53;;;;;;;;;;5071380;28;20336;-72
2023/03/17 00:43:02;;;;;;;7.45;4.88;;;;;;;;;;5070889;28;20123;-73
2023/03/17 00:45:29;;;;;;;7.72;4.10;;;;;;;;;;5070843;28;20047;-72
2023/03/17 00:47:55;;;;;;;5.10;4.00;;;;;;;;;;5070860;28;20040;-72
2023/03/17 00:50:26;;;;;;;7.15;3.83;;;;;;;;;;5070880;28;20462;-72
2023/03/17 00:52:55;;;;;;;8.63;4.57;;;8.50;99.90;;;;;;5070660;28;20044;-73
2023/03/17 00:55:21;;;;;;;4.32;3.38;;;;;;;;;;5087817;28;20079;-73
2023/03/17 00:57:47;;;;;;;5.85;3.58;;;;;;;;;;5070936;28;20045;-73
2023/03/17 01:00:23;;;;;;;8.02;3.85;;;8.60;99.90;;;;;;5070854;28;20124;-73
2023/03/17 01:02:50;;;;;;;8.18;5.22;;;;;;;;;;5053962;28;20039;-73
2023/03/17 01:05:16;;;;;;;9.50;4.18;;;;;;;;;;5070924;28;20098;-73
2023/03/17 01:07:51;;;;;;;6.65;3.90;;;8.70;99.90;;;;;;5070910;28;20504;-73
2023/03/17 01:10:18;;;;;;;5.50;3.72;;;;;;;;;;5087730;28;20052;-73
2023/03/17 01:12:44;;;;;;;6.43;3.88;;;;;;;;;;5070300;28;20127;-73
2023/03/17 01:15:12;;;;;;;9.43;4.28;;;8.50;99.90;;;;;;5070541;28;20119;-72
2023/03/17 01:17:38;;;;;;;8.07;4.13;;;;;;;;;;5087694;28;20442;-72
2023/03/17 01:20:06;;;;;;;5.85;3.55;;;8.60;99.90;;;;;;5070377;28;20124;-73
2023/03/17 01:22:31;;;;;;;7.60;3.97;;;8.70;99.90;;;;;;5053615;28;20080;-73
2023/03/17 01:24:57;;;;;;;7.00;4.05;;;8.50;99.90;;;;;;5070352;28;20080;-73
2023/03/17 01:27:24;;;;;;;7.85;3.95;;;8.60;99.90;;;;;;5087270;28;20559;-73
2023/03/17 01:29:53;;;;;;;7.80;3.85;;;8.50;99.90;;;;;;5053956;28;20085;-72
2023/03/17 01:32:20;;;;;;;8.73;3.70;;;;;;;;;;5087051;28;20072;-72
2023/03/17 01:34:46;;;;;;;4.75;3.72;;;8.60;99.90;;;;;;5070140;28;20406;-72
2023/03/17 01:37:13;;;;;;;5.22;3.30;;;8.60;99.90;;;;;;5087196;28;20120;-73
2023/03/17 01:39:39;;;;;;;8.40;4.63;;;;;;;;;;5053548;28;20492;-73
2023/03/17 01:42:06;;;;;;;6.00;3.97;;;;;;;;;;5071259;28;20052;-73
2023/03/17 01:44:32;;;;;;;5.40;3.70;;;;;;;;;;5070522;28;20044;-73
2023/03/17 01:46:59;;;;;;;4.50;3.05;;;;;;;;;;5070321;28;20074;-73
2023/03/17 01:49:34;;;;;;;6.05;3.80;;;8.60;99.90;;;;;;5070262;28;20090;-72
2023/03/17 01:52:14;;;;;;;5.43;3.17;;;8.40;99.90;;;;;;5086993;28;20499;-73
2023/03/17 01:55:01;;;;;;;6.07;3.30;;;8.70;99.90;;;;;;5086995;28;20171;-72
2023/03/17 01:57:36;;;;;;;6.75;4.43;;;;;;;;;;5086948;28;20040;-73
2023/03/17 02:00:11;;;;;;;4.18;3.28;;;;;;;;;;5070002;28;20496;-73
2023/03/17 02:02:39;;;;;;;5.00;3.67;;;;;;;;;;5070943;28;20425;-73
2023/03/17 02:05:08;;;;;;;9.98;4.15;;;8.60;99.90;;;;;;5053210;28;20051;-72
2023/03/17 02:07:34;;;;;;;5.80;3.47;;;8.50;99.90;;;;;;5087342;28;20107;-73
2023/03/17 02:10:01;;;;;;;6.32;3.72;;;;;;;;;;5087119;28;20521;-73
2023/03/17 02:12:28;;;;;;;7.93;3.33;;;8.50;99.90;;;;;;5069810;28;20040;-73
2023/03/17 02:14:54;;;;;;;5.07;3.35;;;;;;;;;;5087023;28;20039;-73
2023/03/17 02:17:21;;;;;;;5.13;3.72;;;8.60;99.90;;;;;;5069718;28;20139;-73
2023/03/17 02:19:48;;;;;;;5.28;3.25;;;;;;;;;;5086741;28;20047;-73
2023/03/17 02:22:15;;;;;;;7.18;3.40;;;8.50;99.90;;;;;;5069587;28;20047;-73
2023/03/17 02:24:44;;;;;;;3.75;3.10;;;8.40;99.90;;;;;;5053132;28;20036;-73
2023/03/17 02:27:34;;;;;;;4.90;3.90;;;8.50;99.90;;;;;;5089380;28;20079;-72
2023/03/17 02:30:00;;;;;;;7.18;4.20;;;8.40;99.90;;;;;;5090433;28;20045;-73
2023/03/17 02:32:26;;;;;;;7.38;3.90;;;8.30;99.90;;;;;;5090207;28;20463;-73
2023/03/17 02:34:52;;;;;;;4.95;3.42;;;;;;;;;;5073323;28;20573;-73
2023/03/17 02:37:19;;;;;;;6.22;3.60;;;8.60;99.90;;;;;;5073654;28;20077;-73
2023/03/17 02:39:45;;;;;;;4.45;3.20;;;;;;;;;;5090610;28;20442;-73
2023/03/17 02:42:11;;;;;;;4.50;3.30;;;8.50;99.90;;;;;;5056582;28;20122;-73
2023/03/17 02:44:39;;;;;;;5.00;3.35;;;;;;;;;;5090177;28;20044;-73
2023/03/17 02:47:06;;;;;;;7.18;3.47;;;8.60;99.90;;;;;;5073565;28;20044;-73
2023/03/17 02:49:33;;;;;;;4.05;3.38;;;8.30;99.90;;;;;;5056626;28;20500;-72
2023/03/17 02:52:00;;;;;;;4.78;2.92;;;;;;;;;;5090228;28;20090;-73
2023/03/17 02:54:26;;;;;;;6.03;3.22;;;;;;;;;;5072967;28;20504;-73
2023/03/17 02:56:51;;;;;;;7.28;3.70;;;8.40;99.90;;;;;;5073060;28;20046;-73
2023/03/17 02:59:17;;;;;;;6.45;3.80;;;;;;;;;;5056717;28;20087;-73
2023/03/17 03:01:43;;;;;;;5.35;3.47;;;;;;;;;;5072979;28;20051;-73
2023/03/17 03:04:10;;;;;;;6.88;3.45;;;;;;;;;;5072835;28;20072;-73
2023/03/17 03:06:36;;;;;;;5.25;3.90;;;8.40;99.90;;;;;;5074380;28;20090;-73
2023/03/17 03:09:02;;;;;;;4.78;3.33;;;8.30;99.90;;;;;;5072984;28;20442;-73
2023/03/17 03:11:28;;;;;;;4.75;3.47;;;8.40;99.90;;;;;;5089847;28;20094;-73
2023/03/17 03:13:54;;;;;;;6.30;3.60;;;;;;;;;;5055974;28;20040;-73
2023/03/17 03:16:20;;;;;;;4.60;3.25;;;8.40;99.90;;;;;;5072884;28;20040;-73
2023/03/17 03:18:46;;;;;;;5.53;3.08;;;;;;;;;;5056150;28;20047;-73
2023/03/17 03:21:12;;;;;;;5.05;3.38;;;;;;;;;;5072719;28;20040;-73
2023/03/17 03:23:38;;;;;;;7.03;3.85;;;;;;;;;;5072519;28;20123;-73
2023/03/17 03:26:04;;;;;;;7.95;4.13;;;8.50;99.90;;;;;;5072526;28;20044;-73
2023/03/17 03:28:30;;;;;;;8.05;3.47;;;8.50;99.90;;;;;;5072557;28;20048;-73
2023/03/17 03:30:55;;;;;;;7.82;3.72;;;8.50;99.90;;;;;;5072900;28;20503;-73
2023/03/17 03:33:21;;;;;;;4.93;3.63;;;;;;;;;;5071993;28;20086;-73
2023/03/17 03:35:47;;;;;;;6.10;3.80;;;;;;;;;;5072404;28;20411;-73
2023/03/17 03:38:13;;;;;;;5.18;3.40;;;;;;;;;;5073538;28;20094;-74
2023/03/17 03:40:40;;;;;;;6.80;3.60;;;;;;;;;;5072170;28;20123;-73
2023/03/17 03:43:06;;;;;;;5.38;3.40;;;;;;;;;;5072119;28;20045;-73
2023/03/17 03:45:32;;;;;;;5.25;3.58;;;;;;;;;;5072102;28;20040;-73
2023/03/17 03:47:58;;;;;;;4.70;3.35;;;8.50;99.90;;;;;;5072183;28;20155;-74
2023/03/17 03:50:24;;;;;;;4.32;3.33;;;;;;;;;;5072055;28;20127;-73
2023/03/17 03:52:50;;;;;;;4.53;3.30;;;;;;;;;;5055328;28;20048;-73
2023/03/17 03:55:16;;;;;;;4.47;3.35;;;8.50;99.90;;;;;;5056031;28;20404;-73
2023/03/17 03:57:42;;;;;;;7.15;3.35;;;;;;;;;;5055549;28;20421;-73
2023/03/17 04:00:09;;;;;;;5.75;3.83;;;8.50;99.90;;;;;;5071791;28;20036;-73
2023/03/17 04:02:36;;;;;;;5.45;3.63;;;;;;;;;;5088805;28;20048;-73
2023/03/17 04:05:01;;;;;;;6.88;3.50;;;8.50;99.90;;;;;;5055308;28;20046;-73
2023/03/17 04:07:28;;;;;;;5.55;3.78;;;;;;;;;;5088752;28;20044;-73
2023/03/17 04:09:55;;;;;;;5.38;3.28;;;;;;;;;;5071642;28;20048;-73
2023/03/17 04:12:21;;;;;;;5.20;3.58;;;8.40;99.90;;;;;;5071679;28;20458;-73
2023/03/17 04:14:47;;;;;;;8.55;3.60;;;;;;;;;;5088755;28;20040;-73
2023/03/17 04:17:14;;;;;;;8.02;3.70;;;;;;;;;;5071549;28;20090;-73
2023/03/17 04:19:39;;;;;;;6.78;4.05;;;8.20;99.90;;;;;;5055174;28;20396;-73
2023/03/17 04:22:07;;;;;;;7.53;3.67;;;8.10;99.90;;;;;;5071214;28;20094;-74
2023/03/17 04:24:33;;;;;;;9.23;3.50;;;;;;;;;;5088340;28;20122;-73
2023/03/17 04:27:00;;;;;;;4.20;3.15;;;;;;;;;;5071563;28;20512;-73
2023/03/17 04:29:26;;;;;;;5.25;3.60;;;;;;;;;;5071359;28;20047;-74
2023/03/17 04:31:52;;;;;;;4.13;3.40;;;;;;;;;;5071181;28;20104;-74
2023/03/17 04:34:18;;;;;;;4.30;3.13;;;8.20;99.90;;;;;;5070912;28;20083;-73
2023/03/17 04:36:46;;;;;;;5.15;3.33;;;8.30;99.90;;;;;;5087979;28;20558;-73
2023/03/17 04:39:13;;;;;;;6.90;3.70;;;8.30;99.90;;;;;;5054451;28;20036;-73
2023/03/17 04:41:39;;;;;;;5.68;3.33;;;8.30;99.90;;;;;;5087966;28;20036;-72
2023/03/17 04:44:05;;;;;;;5.15;3.53;;;;;;;;;;5071006;28;20470;-72
2023/03/17 04:46:31;;;;;;;5.90;3.88;;;8.10;99.90;;;;;;5071003;28;20051;-73
2023/03/17 04:48:57;;;;;;;4.95;3.60;;;;;;;;;;5087382;28;20044;-72
2023/03/17 04:51:23;;;;;;;4.93;3.35;;;8.00;99.90;;;;;;5070712;28;20415;-73
2023/03/17 04:53:49;;;;;;;6.25;3.60;;;;;;;;;;5070597;28;20040;-73
2023/03/17 04:56:15;;;;;;;7.18;3.42;;;;;;;;;;5070843;28;20037;-73
2023/03/17 04:58:41;;;;;;;9.30;4.28;;;8.90;99.90;;;;;;5070735;28;20412;-73
2023/03/17 05:01:07;;;;;;;4.22;3.42;;;;;;;;;;5070781;28;20044;-73
2023/03/17 05:03:33;;;;;;;5.93;3.40;;;8.10;99.90;;;;;;5070401;28;20040;-73
2023/03/17 05:06:01;;;;;;;8.10;3.80;;;7.80;99.90;;;;;;5071038;28;20048;-73
2023/03/17 05:08:29;;;;;;;4.75;3.03;;;8.10;99.90;;;;;;5054103;28;20037;-72
2023/03/17 05:10:56;;;;;;;5.72;3.58;;;8.00;99.90;;;;;;5070727;28;20036;-72
2023/03/17 05:13:22;;;;;;;5.68;3.30;;;8.00;99.90;;;;;;5053832;28;20063;-73
2023/03/17 05:15:50;;;;;;;7.40;4.10;;;8.10;99.90;;;;;;5087821;28;20510;-73
2023/03/17 05:18:17;;;;;;;6.30;3.70;;;8.20;99.90;;;;;;5087667;28;20439;-73
2023/03/17 05:20:43;;;;;;;7.13;3.30;;;8.00;99.90;;;;;;5087332;28;20094;-72
2023/03/17 05:23:09;;;;;;;4.57;3.30;;;8.10;99.90;;;;;;5087240;28;20036;-72
2023/03/17 05:25:35;;;;;;;5.45;3.38;;;8.10;99.90;;;;;;5087455;28;20083;-73
2023/03/17 05:28:01;;;;;;;6.15;3.63;;;8.10;99.90;;;;;;5053720;28;20071;-73
2023/03/17 05:30:27;;;;;;;7.00;3.40;;;8.30;99.90;;;;;;5070523;28;20549;-73
2023/03/17 05:32:53;;;;;;;6.00;3.17;;;8.10;99.90;;;;;;5053660;28;20119;-71
2023/03/17 05:35:19;;;;;;;3.80;3.33;;;;;;;;;;5090432;22;20044;-66
2023/03/17 05:37:45;;;;;;;4.93;3.70;;;;;;;;;;5050260;28;20072;-66
2023/03/17 05:40:13;;;;;;;7.00;3.53;;;8.10;99.90;;;;;;5050151;28;20557;-67
2023/03/17 05:42:40;;;;;;;7.38;3.10;;;;;;;;;;5033679;28;20049;-66
2023/03/17 05:45:06;;;;;;;5.20;3.28;;;8.10;99.90;;;;;;5050335;28;20531;-68
2023/03/17 05:47:32;;;;;;;5.32;3.17;;;8.30;99.90;;;;;;5050096;28;20076;-69
2023/03/17 05:49:59;;;;;;;6.78;2.90;;;8.40;99.90;;;;;;5033556;28;20091;-68
2023/03/17 05:52:25;;;;;;;5.20;3.08;;;8.40;99.90;;;;;;5049861;28;20041;-68
2023/03/17 05:54:52;;;;;;;8.88;3.45;;;8.30;99.90;;;;;;5051310;28;20044;-68
2023/03/17 05:57:18;;;;;;;5.88;3.40;;;;;;;;;;5033697;28;20052;-68
2023/03/17 05:59:44;;;;;;;5.47;3.47;;;;;;;;;;5050159;28;20036;-68
2023/03/17 06:02:10;;;;;;;6.30;3.30;;;;;;;;;;5035822;28;20044;-69
2023/03/17 06:04:36;;;;;;;6.80;3.38;;;;;;;;;;5053936;28;20052;-68
2023/03/17 06:07:03;;;;;;;15.48;3.67;;;;;;;;;;5055206;28;20086;-68
2023/03/17 06:09:29;;;;;;;7.68;3.20;;;8.30;99.90;;;;;;5037315;28;20091;-67
2023/03/17 06:11:55;;;;;;;6.03;3.75;;;8.40;99.90;;;;;;5053822;28;20079;-69
2023/03/17 06:14:21;;;;;;;5.45;3.47;;;8.40;99.90;;;;;;5053543;28;20045;-68
2023/03/17 06:16:47;;;;;;;4.53;3.15;;;;;;;;;;5053888;28;20041;-68
2023/03/17 06:19:13;;;;;;;7.88;3.40;;;;;;;;;;5053757;28;20043;-68
2023/03/17 06:21:39;;;;;;;5.75;3.40;;;;;;;;;;5053713;28;20037;-67
2023/03/17 06:24:05;;;;;;;4.25;3.33;;;;;;;;;;5053678;28;20191;-66
2023/03/17 06:26:31;;;;;;;4.43;3.00;;;;;;;;;;5054302;28;20064;-68
2023/03/17 06:28:57;;;;;;;3.95;2.95;;;;;;;;;;5055250;28;20044;-68
2023/03/17 06:31:23;;;;;;;5.63;3.20;;;;;;;;;;5053983;28;20060;-68
2023/03/17 06:33:49;;;;;;;6.07;3.05;;;;;;;;;;5054805;28;20501;-66
2023/03/17 06:36:16;;;;;;;5.18;3.10;;;;;;;;;;5053671;28;20527;-66
2023/03/17 06:38:42;;;;;;;5.38;2.83;;;;;;;;;;5053469;28;20040;-68
2023/03/17 06:41:08;;;;;;;9.77;2.97;;;;;;;;;;5053403;28;20492;-68
2023/03/17 06:43:35;;;;;;;3.50;2.70;;;8.60;99.90;;;;;;5036771;28;20040;-68
2023/03/17 06:46:00;;;;;;;5.25;2.53;;;8.60;99.90;;;;;;5053377;28;20072;-68
2023/03/17 06:48:27;;;;;;;6.10;3.50;;;8.60;99.90;;;;;;5054534;28;20075;-68
2023/03/17 06:50:53;;;;;;;7.35;3.05;;;8.40;99.90;;;;;;5053373;28;20412;-68
2023/03/17 06:53:19;;;;;;;6.22;3.10;;;8.70;99.90;;;;;;5036348;28;20037;-68
2023/03/17 06:55:45;;;;;;;8.27;3.45;;;8.70;99.90;;;;;;5053244;28;20044;-68
2023/03/17 06:58:12;;;;;;;5.22;3.20;;;8.70;99.90;;;;;;5053305;28;20146;-68
2023/03/17 07:00:38;;;;;;;5.15;2.83;;;;;;;;;;5053318;28;20068;-68
2023/03/17 07:03:05;;;;;;;5.03;3.13;;;8.80;99.90;;;;;;5053155;28;20529;-67
2023/03/17 07:05:32;;;;;;;5.35;2.60;;;;;;;;;;5053078;28;20049;-67
2023/03/17 07:07:57;;;;;;;5.40;3.15;;;8.80;99.90;;;;;;5053154;28;20090;-67
2023/03/17 07:10:24;;;;;;;3.92;3.15;;;;;;;;;;5036433;28;20052;-67
2023/03/17 07:12:50;;;;;;;6.03;3.38;;;9.00;99.90;;;;;;5052272;28;20067;-67
2023/03/17 07:15:16;;;;;;;5.43;3.03;;;9.10;99.90;;;;;;5053041;28;20041;-68
2023/03/17 07:17:42;;;;;;;7.75;3.33;;;9.20;99.90;;;;;;5052713;28;20124;-67
2023/03/17 07:20:09;;;;;;;5.80;3.13;;;9.10;99.90;;;;;;5052791;28;20467;-67
2023/03/17 07:22:35;;;;;;;5.55;3.10;;;9.20;99.90;;;;;;5052771;28;20472;-67
2023/03/17 07:25:00;;;;;;;7.95;3.60;;;9.30;99.90;;;;;;5052607;28;20124;-67
2023/03/17 07:27:26;;;;;;;4.10;2.75;;;;;;;;;;5052494;28;20044;-67
2023/03/17 07:29:52;;;;;;;4.22;3.05;;;;;;;;;;5052339;28;20570;-67
2023/03/17 07:32:18;;;;;;;6.20;3.60;;;9.60;99.90;;;;;;5052180;28;20044;-68
2023/03/17 07:34:44;;;;;;;6.13;3.40;;;;;;;;;;5052401;28;20402;-68
2023/03/17 07:37:11;;;;;;;4.85;3.08;;;;;;;;;;5052631;28;20510;-67
2023/03/17 07:39:37;;;;;;;5.93;2.85;;;9.60;99.90;;;;;;5053710;28;20064;-67
2023/03/17 07:42:03;;;;;;;4.68;3.28;;;;;;;;;;5052296;28;20429;-67
2023/03/17 07:44:30;;;;;;;5.55;2.80;;;9.60;99.90;;;;;;5052225;28;20116;-67
2023/03/17 07:46:55;;;;;;;4.30;3.28;;;9.70;99.90;;;;;;5035636;28;20485;-68
2023/03/17 07:49:21;;;;;;;3.65;2.78;;;9.60;99.90;;;;;;5051996;28;20098;-67
2023/03/17 07:51:47;;;;;;;6.68;3.28;;;;;;;;;;5052055;28;20062;-67
2023/03/17 07:54:14;;;;;;;7.95;3.00;;;9.80;99.90;;;;;;5051810;28;20076;-67
2023/03/17 07:56:40;;;;;;;7.55;3.58;;;9.90;99.90;;;;;;5035272;28;20033;-67
2023/03/17 07:59:07;;;;;;;5.18;3.15;;;;;;;;;;5051922;28;20041;-67
2023/03/17 08:01:34;;;;;;;4.65;2.83;;;;;;;;;;5051870;28;20045;-67
2023/03/17 08:04:00;;;;;;;4.95;3.05;;;;;;;;;;5034990;28;20053;-67
2023/03/17 08:06:26;;;;;;;5.47;2.90;;;;;;;;;;5035212;28;20063;-67
2023/03/17 08:08:53;;;;;;;4.57;3.00;;;9.70;99.90;;;;;;5051801;28;20066;-68
2023/03/17 08:11:19;;;;;;;3.85;3.00;;;10.00;99.90;;;;;;5051793;28;20045;-67
2023/03/17 08:13:45;;;;;;;6.57;3.75;;;10.00;99.90;;;;;;5051310;28;20041;-67
2023/03/17 08:16:11;;;;;;;5.60;3.53;;;;;;;;;;5051716;28;20049;-68
2023/03/17 08:18:37;;;;;;;6.15;3.03;;;10.10;99.90;;;;;;5051838;28;20087;-68
2023/03/17 08:21:03;;;;;;;5.65;3.33;;;9.90;99.90;;;;;;5035178;28;20069;-67
2023/03/17 08:23:29;;;;;;;4.10;2.63;;;10.00;99.90;;;;;;5051047;28;20554;-68
2023/03/17 08:26:00;;;;;;;6.97;4.10;;;10.10;99.90;;;;;;5051297;28;20045;-67
2023/03/17 08:28:26;;;;;;;3.80;3.05;;;9.90;99.90;;;;;;5051447;28;20037;-67
2023/03/17 08:30:53;;;;;;;6.57;3.40;;;10.20;99.90;;;;;;5051302;28;20040;-68
2023/03/17 08:33:19;;;;;;;4.50;3.08;;;;;;;;;;5051024;28;20052;-67
2023/03/17 08:35:45;;;;;;;6.30;3.05;;;;;;;;;;5051173;28;20041;-68
2023/03/17 08:38:11;;;;;;;5.43;3.25;;;10.10;99.90;;;;;;5051262;28;20065;-68
2023/03/17 08:40:38;;;;;;;7.22;4.43;;;10.40;99.90;;;;;;5051101;28;20079;-67
2023/03/17 08:43:06;;;;;;;6.63;3.40;;;10.30;99.90;;;;;;5050950;28;20048;-68
2023/03/17 08:45:32;;;;;;;6.47;3.75;;;10.40;99.90;;;;;;5052321;28;20053;-68
2023/03/17 08:47:58;;;;;;;4.85;2.95;;;;;;;;;;5051163;28;20047;-68
2023/03/17 08:50:25;;;;;;;3.67;2.97;;;10.90;99.90;;;;;;5051341;28;20123;-68
2023/03/17 08:52:51;;;;;;;5.03;3.25;;;11.00;99.90;;;;;;5050962;28;20111;-69
2023/03/17 08:55:17;;;;;;;8.43;3.72;;;11.20;99.90;;;;;;5050858;28;20497;-68
2023/03/17 08:57:43;;;;;;;6.07;3.10;;;11.30;99.90;;;;;;5050860;28;20033;-68
2023/03/17 09:00:19;;;;;;;6.30;3.13;;;11.50;99.90;;;;;;5050974;28;20392;-69
2023/03/17 09:02:45;;;;;;;4.18;3.40;;;;;;;;;;5034359;28;20044;-68
2023/03/17 09:05:12;;;;;;;6.72;3.95;;;11.90;99.90;;;;;;5034468;28;20512;-66
2023/03/17 09:07:39;;;;;;;6.18;4.00;;;11.80;99.90;;;;;;5034266;28;20504;-67
2023/03/17 09:10:07;;;;;;;6.00;4.35;;;12.00;99.90;;;;;;5050635;28;20539;-67
2023/03/17 09:12:32;;;;;;;7.05;3.55;;;12.10;99.90;;;;;;5050453;28;20075;-67
2023/03/17 09:14:58;;;;;;;6.85;3.50;;;12.20;99.90;;;;;;5050787;28;20483;-67
2023/03/17 09:17:24;;;;;;;10.65;4.28;;;12.30;99.90;;;;;;5051901;28;20075;-68
2023/03/17 09:19:49;;;;;;;6.47;3.42;;;12.40;99.90;;;;;;5033849;28;20409;-67
2023/03/17 09:22:17;;;;;;;11.98;4.07;;;12.20;99.90;;;;;;5051536;28;20071;-68
2023/03/17 09:24:43;;;;;;;5.65;3.75;;;12.50;99.90;;;;;;5050375;28;20040;-68
2023/03/17 09:27:09;;;;;;;8.25;4.40;;;12.30;99.90;;;;;;5050290;28;20033;-68
2023/03/17 09:29:35;;;;;;;8.40;4.32;;;12.50;99.90;;;;;;5050368;28;20093;-68
2023/03/17 09:32:01;;;;;;;6.30;3.70;;;;;;;;;;5033669;28;20033;-68
2023/03/17 09:34:27;;;;;;;9.38;3.60;;;12.50;99.90;;;;;;5049863;28;20041;-67
2023/03/17 09:36:53;;;;;;;4.63;3.70;;;12.70;99.90;;;;;;5033565;28;20044;-68
2023/03/17 09:39:21;;;;;;;11.35;4.53;;;12.60;99.90;;;;;;5050258;28;20041;-67
2023/03/17 09:42:05;;;;;;;8.13;3.97;;;12.70;99.90;;;;;;5050165;28;20148;-68
2023/03/17 09:44:42;;;;;;;8.13;3.92;;;12.90;99.90;;;;;;5050249;28;20496;-68
2023/03/17 09:47:39;;;;;;;8.57;4.07;;;12.80;99.90;;;;;;5050352;28;20044;-68
2023/03/17 09:50:14;;;;;;;7.90;4.63;;;12.90;99.90;;;;;;5050311;28;20048;-68
2023/03/17 09:52:41;;;;;;;7.53;4.25;;;13.10;99.90;;;;;;5049757;28;20052;-68
2023/03/17 09:55:18;;;;;;;8.38;5.00;;;13.10;99.90;;;;;;5050052;28;20041;-68
2023/03/17 09:57:51;;;;;;;9.63;4.18;;;;;;;;;;5050354;28;20052;-68
2023/03/17 10:00:25;;;;;;;9.25;4.78;;;;;;;;;;5050110;28;20093;-68
2023/03/17 10:02:51;;;;;;;7.53;4.88;;;13.20;99.90;;;;;;5033515;28;20500;-68
2023/03/17 10:05:26;;;;;;;9.18;5.22;;;13.20;99.90;;;;;;5049990;28;20036;-68
2023/03/17 10:08:04;;;;;;;6.90;4.45;;;13.40;99.90;;;;;;5050017;28;20045;-68
2023/03/17 10:10:54;;;;;;;7.18;4.50;;;13.50;99.90;;;;;;5049979;28;20045;-67
2023/03/17 10:13:32;;;;;;;7.78;4.60;;;13.60;99.90;;;;;;5033182;28;20041;-68
2023/03/17 10:16:24;;;;;;;8.30;4.50;;;;;;;;;;5049980;28;20040;-67
2023/03/17 10:19:26;;;;;;;9.02;4.82;;;13.70;99.90;;;;;;5050238;28;20037;-67
2023/03/17 10:21:57;;;;;;;4.68;3.75;;;;;;;;;;5049517;28;20049;-68
2023/03/17 10:24:24;;;;;;;6.57;4.20;;;13.90;99.90;;;;;;5049635;28;20094;-68
2023/03/17 10:26:54;;;;;;;8.80;4.60;;;;;;;;;;5051109;28;20103;-68
2023/03/17 10:29:22;;;;;;;6.28;4.22;;;14.00;99.90;;;;;;5050111;28;20037;-68
2023/03/17 10:31:50;;;;;;;7.57;4.57;;;14.60;99.90;;;;;;5049933;28;20037;-67
2023/03/17 10:34:22;;;;;;;8.77;4.18;;;;;;;;;;5050658;28;20040;-68
2023/03/17 10:36:52;;;;;;;8.93;5.10;;;14.30;99.90;;;;;;5049813;28;20037;-68
2023/03/17 10:39:23;;;;;;;9.98;4.03;;;14.30;99.90;;;;;;5050043;28;20120;-68
2023/03/17 10:41:55;;;;;;;7.38;4.35;;;14.50;99.90;;;;;;5050216;28;20033;-68
2023/03/17 10:44:42;;;;;;;6.97;4.40;;;14.40;99.90;;;;;;5033433;28;20467;-67
2023/03/17 10:47:22;;;;;;;9.50;4.63;;;14.40;99.90;;;;;;5050934;28;20072;-67
2023/03/17 10:49:50;;;;;;;7.45;4.32;;;14.50;99.90;;;;;;5053597;28;20045;-67
2023/03/17 10:52:26;;;;;;;8.82;5.40;;;14.40;99.90;;;;;;5053020;28;20450;-68
2023/03/17 10:54:52;;;;;;;5.82;3.67;;;14.70;99.90;;;;;;5053411;28;20339;-68
2023/03/17 10:57:18;;;;;;;8.63;4.25;;;14.80;99.90;;;;;;5053542;28;20281;-68
2023/03/17 10:59:53;;;;;;;9.43;4.07;;;14.60;99.90;;;;;;5053241;28;20037;-68
2023/03/17 11:02:34;;;;;;;6.95;4.10;;;14.80;99.90;;;;;;5053254;28;20039;-68
2023/03/17 11:05:08;;;;;;;8.88;4.25;;;14.90;99.90;;;;;;5053111;28;20041;-68
2023/03/17 11:07:39;;;;;;;10.10;5.28;;;15.20;99.90;;;;;;5053082;28;20069;-68
2023/03/17 11:10:17;;;;;;;8.25;5.07;;;15.10;99.90;;;;;;5053127;28;20045;-68
2023/03/17 11:12:43;;;;;;;8.02;4.43;;;;;;;;;;5036027;28;20040;-68
2023/03/17 11:15:17;;;;;;;6.57;4.78;;;15.00;99.90;;;;;;5052787;28;20047;-68
2023/03/17 11:17:44;;;;;;;9.27;4.57;;;;;;;;;;5052696;28;20036;-67
2023/03/17 11:20:36;;;;;;;7.28;4.93;;;15.30;99.90;;;;;;5052940;28;20129;-68
2023/03/17 11:23:18;;;;;;;8.10;4.97;;;14.90;99.90;;;;;;5052691;28;20475;-67
2023/03/17 11:25:48;;;;;;;7.25;5.38;;;15.30;99.90;;;;;;5052637;28;20102;-68
2023/03/17 11:28:26;;;;;;;9.10;6.20;;;15.50;99.90;;;;;;5053789;28;20051;-67
2023/03/17 11:31:24;;;;;;;8.80;5.38;;;15.80;99.90;;;;;;5052576;28;20052;-68
2023/03/17 11:34:07;;;;;;;9.75;6.13;;;15.40;99.90;;;;;;5049071;28;20131;-68
2023/03/17 11:36:51;;;;;;;9.43;5.80;;;15.40;99.90;;;;;;5128543;22;20529;-74
2023/03/17 11:39:31;;;;;;;10.13;5.30;;;15.30;99.90;;;;;;5112964;28;20047;-74
2023/03/17 11:42:05;;;;;;;9.90;5.32;;;15.70;99.90;;;;;;5113166;28;20062;-74
2023/03/17 11:44:35;;;;;;;10.07;5.95;;;;;;;;;;5096236;28;20032;-75
2023/03/17 11:47:30;;;;;;;11.98;6.28;;;15.50;99.90;;;;;;5112862;28;20040;-75
2023/03/17 11:50:25;;;;;;;7.55;5.40;;;15.50;99.90;;;;;;5112738;28;20051;-74
2023/03/17 11:53:22;;;;;;;8.23;5.80;;;15.50;99.90;;;;;;5105384;28;20539;-75
2023/03/17 11:56:03;;;;;;;11.30;6.07;;;15.50;99.90;;;;;;5113050;28;20501;-74
2023/03/17 11:58:40;;;;;;;8.48;5.82;;;15.50;99.90;;;;;;5111659;28;20503;-75
2023/03/17 12:01:10;;;;;;;9.23;5.43;;;16.00;99.90;;;;;;5112532;28;20042;-75
2023/03/17 12:04:09;;;;;;;8.55;5.50;;;15.90;99.90;;;;;;5112480;28;20046;-75
2023/03/17 12:06:47;;;;;;;8.90;5.82;;;15.90;99.90;;;;;;5108799;28;20056;-75
2023/03/17 12:09:28;;;;;;;10.52;5.90;;;15.90;99.90;;;;;;5113608;28;20392;-75
2023/03/17 12:11:55;;;;;;;8.98;5.72;;;15.90;99.90;;;;;;5096107;28;20047;-75
2023/03/17 12:14:38;;;;;;;8.07;5.70;;;16.00;99.90;;;;;;5112425;28;20047;-75
2023/03/17 12:17:18;;;;;;;11.13;6.22;;;16.10;99.90;;;;;;5112935;28;20118;-75
2023/03/17 12:20:05;;;;;;;7.63;5.60;;;15.90;99.90;;;;;;5112373;28;20039;-75
2023/03/17 12:22:45;;;;;;;8.00;5.78;;;15.90;99.90;;;;;;5112200;28;20063;-75
2023/03/17 12:25:31;;;;;;;9.13;6.32;;;15.80;99.90;;;;;;5112528;28;20538;-75
2023/03/17 12:28:00;;;;;;;10.55;6.28;;;16.00;99.90;;;;;;5112176;28;20043;-75
2023/03/17 12:30:44;;;;;;;14.70;6.80;;;16.30;99.90;;;;;;5095032;28;20579;-74
2023/03/17 12:33:36;;;;;;;11.35;6.15;;;16.20;99.90;;;;;;5111976;28;20039;-75
2023/03/17 12:36:03;;;;;;;9.20;5.97;;;16.20;99.90;;;;;;5094241;28;20047;-75
2023/03/17 12:38:42;;;;;;;9.40;6.72;;;15.80;99.90;;;;;;5111881;28;20071;-75
2023/03/17 12:41:27;;;;;;;6.60;5.30;;;16.80;99.90;;;;;;5112042;28;20089;-75
2023/03/17 12:44:19;;;;;;;8.80;6.18;;;15.70;99.90;;;;;;5111959;28;20579;-75
2023/03/17 12:47:03;;;;;;;9.85;6.63;;;16.00;99.90;;;;;;5111707;28;20079;-75
2023/03/17 12:49:37;;;;;;;9.75;5.65;;;15.50;99.90;;;;;;5112912;28;20043;-75
2023/03/17 12:52:19;;;;;;;10.45;6.03;;;15.50;99.90;;;;;;5111819;28;20058;-75
2023/03/17 12:54:47;;;;;;;10.05;5.90;;;15.40;99.90;;;;;;5111499;28;20628;-74
2023/03/17 12:57:19;;;;;;;8.40;5.88;;;15.40;99.90;;;;;;5111797;28;20039;-75
2023/03/17 12:59:48;;;;;;;9.65;5.70;;;15.30;99.90;;;;;;5111511;28;20124;-74
2023/03/17 13:02:26;;;;;;;9.48;6.20;;;15.00;99.90;;;;;;5094166;28;20098;-75
2023/03/17 13:04:59;;;;;;;10.10;6.55;;;15.00;99.90;;;;;;5111315;28;20123;-74
2023/03/17 13:07:30;;;;;;;;;;;15.10;99.90;;;;;;5112123;28;20122;-75
2023/03/17 13:09:55;;;;;;;11.27;6.70;;;15.00;99.90;;;;;;5093921;28;20032;-74
2023/03/17 13:12:39;;;;;;;8.68;6.38;;;14.80;99.90;;;;;;5111662;28;20196;-75
2023/03/17 13:15:23;;;;;;;12.45;6.00;;;14.80;99.90;;;;;;5111305;28;20051;-75
2023/03/17 13:17:51;;;;;;;9.38;6.80;;;14.90;99.90;;;;;;5111378;28;20044;-74
2023/03/17 13:20:34;;;;;;;9.23;6.93;;;14.80;99.90;;;;;;5111236;28;20043;-75
2023/03/17 13:23:09;;;;;;;10.35;6.25;;;15.00;99.90;;;;;;5111048;28;20035;-74
2023/03/17 13:25:41;;;;;;;9.60;6.47;;;15.20;99.90;;;;;;5111059;28;20047;-75
2023/03/17 13:28:14;;;;;;;8.18;6.55;;;15.80;99.90;;;;;;5110999;28;20047;-75
2023/03/17 13:30:39;;;;;;;7.50;6.13;;;;;;;;;;5110975;28;20064;-75
2023/03/17 13:33:08;;;;;;;11.95;6.32;;;15.60;99.90;;;;;;5110634;28;20039;-75
2023/03/17 13:35:40;;;;;;;10.00;6.60;;;15.90;99.90;;;;;;5110643;28;20044;-74
2023/03/17 13:38:21;;;;;;;10.23;6.70;;;15.90;99.90;;;;;;5093924;28;20043;-75
2023/03/17 13:41:14;;;;;;;9.77;6.95;;;16.50;99.90;;;;;;5110843;28;20048;-74